Terminal Aerodrome Forecast
Issued by NWS

Home | Current Version | Previous Version | Text Only | Print | Product List | Glossary On
Versions: 1 2 3 4 5 6 7 8 9 10 11 12 13 14 15 16 17 18 19 20 21 22 23 24
000
FTUS45 KGJT 251729
TAFVEL
TAF
KVEL 251729Z 2518/2618 05003KT P6SM BKN150
     FM251900 26011KT P6SM BKN130
     FM252300 28013G23KT P6SM SCT150
     FM260100 30012G21KT P6SM BKN140
     FM260300 36008KT P6SM SCT200
     FM261300 VRB04KT P6SM BKN090=

USA.gov is the U.S. government's official web portal to all federal, state and local government web resources and services.